Meers, Oklahoma
Current Conditions -  °F | °C
As of 12:58 PM on Thursday 18 Dec 2014 (Local Time) from KFSI Reporting Station
Overcast Overcast  
Wind Chill: 43°   Ceiling: 600
Heat Index: 43°   Visibility: 10mi
Dew Point: 43°   Wind: 2mph
Humidity: 100%   Direction: 30°NNE
Pressure: 30.13"   Gusts: NA
Location:  34.78°N, 98.58°W
Report Text: KFSI 181858Z AUTO 03002KT 10SM OVC006 06/06 A3013 RMK AO2 SLP207 T00590059
Loading
Personal Weather Stations






























Interactive Weather Map New forecast layout! Learn more

10-Day Weather Forecast

Advertisements
Track Severe Weather on mobile